Time;durP1;ratioP1;P1;durP2;ratioP2;P2;SDS_P1;SDS_P2;PMS_P1;PMS_P2;Temp;Humidity;BMP_temperature;BMP_pressure;BME280_temperature;BME280_humidity;BME280_pressure;Samples;Min_cycle;Max_cycle;Signal;HPM_P1;HPM_P2
2024/01/18 00:01:32;;;;;;;2.45;0.32;;;;;;;-2.55;72.38;98208.47;5010659;28;20116;-78
2024/01/18 00:03:59;;;;;;;2.70;0.50;;;;;;;-2.56;72.39;98201.66;5010184;28;20077;-78
2024/01/18 00:06:27;;;;;;;2.03;0.30;;;;;;;-2.59;72.66;98200.00;5003908;28;20128;-78
2024/01/18 00:08:54;;;;;;;1.38;0.30;;;;;;;-2.60;72.95;98195.72;5008853;28;20105;-77
2024/01/18 00:11:21;;;;;;;3.90;0.57;;;;;;;-2.62;73.23;98196.63;5008078;28;20481;-78
2024/01/18 00:13:48;;;;;;;3.58;0.40;;;;;;;-2.64;73.01;98194.06;5007804;28;20069;-78
2024/01/18 00:16:16;;;;;;;6.90;1.42;;;;;;;-2.66;72.94;98198.34;5002841;28;20046;-78
2024/01/18 00:18:44;;;;;;;1.58;0.47;;;;;;;-2.67;72.43;98188.97;5008663;28;20109;-76
2024/01/18 00:21:11;;;;;;;3.70;0.40;;;;;;;-2.68;72.88;98194.97;5007629;28;20074;-77
2024/01/18 00:23:38;;;;;;;0.40;0.20;;;;;;;-2.68;72.24;98197.53;5003117;28;20141;-76
2024/01/18 00:26:05;;;;;;;2.00;0.43;;;;;;;-2.70;72.75;98191.56;5000987;28;20481;-75
2024/01/18 00:28:32;;;;;;;6.05;0.30;;;;;;;-2.73;72.56;98190.78;5005071;28;20073;-75
2024/01/18 00:30:59;;;;;;;2.10;0.40;;;;;;;-2.72;72.74;98188.19;4999593;28;20115;-71
2024/01/18 00:33:26;;;;;;;4.82;0.40;;;;;;;-2.76;72.19;98167.78;4997899;28;20090;-71
2024/01/18 00:35:54;;;;;;;4.07;1.02;;;;;;;-2.76;72.89;98170.34;5003773;28;20050;-71
2024/01/18 00:38:21;;;;;;;2.30;0.32;;;;;;;-2.77;72.60;98166.91;4996659;28;20137;-72
2024/01/18 00:40:48;;;;;;;3.03;0.85;;;;;;;-2.77;72.18;98166.06;5003904;28;20078;-71
2024/01/18 00:43:15;;;;;;;5.25;0.60;;;;;;;-2.79;72.19;98157.53;5002563;28;20575;-71
2024/01/18 00:45:42;;;;;;;5.57;0.40;;;;;;;-2.81;72.45;98155.03;4996800;28;20101;-71
2024/01/18 00:48:09;;;;;;;5.82;0.35;;;;;;;-2.82;72.14;98159.28;5001527;28;20082;-71
2024/01/18 00:50:36;;;;;;;3.53;0.25;;;;;;;-2.84;72.19;98150.78;5002006;28;20085;-71
2024/01/18 00:53:05;;;;;;;4.28;0.38;;;;;;;-2.89;72.74;98144.84;5000537;28;20568;-71
2024/01/18 00:55:33;;;;;;;3.17;0.95;;;;;;;-2.87;72.80;98149.97;5000688;28;20092;-71
2024/01/18 00:58:01;;;;;;;0.80;0.70;;;;;;;-2.89;72.12;98149.97;5000687;28;20419;-71
2024/01/18 01:00:28;;;;;;;2.25;0.47;;;;;;;-2.91;72.24;98148.28;4999262;28;20548;-71
2024/01/18 01:02:55;;;;;;;4.05;0.40;;;;;;;-2.91;72.54;98148.28;4999834;28;20050;-71
2024/01/18 01:05:22;;;;;;;2.70;0.30;;;;;;;-2.91;72.32;98153.41;4998198;28;20101;-71
2024/01/18 01:07:49;;;;;;;2.05;0.38;;;;;;;-2.92;72.24;98144.88;5000382;28;20042;-71
2024/01/18 01:10:17;;;;;;;1.75;0.32;;;;;;;-2.93;72.53;98139.81;4999957;28;20098;-71
2024/01/18 01:12:44;;;;;;;3.70;0.45;;;;;;;-2.96;72.96;98147.53;4999598;28;20089;-71
2024/01/18 01:15:11;;;;;;;7.03;0.50;;;;;;;-2.97;73.07;98143.25;4995873;28;20497;-71
2024/01/18 01:17:38;;;;;;;5.85;0.47;;;;;;;-2.98;72.56;98144.13;5000921;28;20141;-71
2024/01/18 01:20:06;;;;;;;5.57;0.50;;;;;;;-2.99;72.34;98139.84;4999566;28;20089;-71
2024/01/18 01:22:33;;;;;;;6.35;0.75;;;;;;;-3.01;72.50;98136.47;4996145;28;20100;-71
2024/01/18 01:25:00;;;;;;;1.98;0.40;;;;;;;-3.04;72.88;98135.63;4999497;28;20416;-71
2024/01/18 01:27:29;;;;;;;4.55;0.30;;;;;;;-3.04;72.90;98127.97;5002115;28;20081;-71
2024/01/18 01:29:56;;;;;;;4.47;0.30;;;;;;;-3.07;72.21;98128.00;4999273;28;20118;-73
2024/01/18 01:32:23;;;;;;;3.42;0.50;;;;;;;-3.10;72.15;98122.06;5000633;28;20610;-73
2024/01/18 01:34:49;;;;;;;8.10;0.77;;;;;;;-3.09;72.53;98124.59;4999390;28;20129;-73
2024/01/18 01:37:16;;;;;;;3.83;0.30;;;;;;;-3.10;72.49;98120.38;5003999;28;20137;-73
2024/01/18 01:39:43;;;;;;;2.90;0.90;;;;;;;-3.10;72.16;98119.53;4997480;28;20073;-71
2024/01/18 01:42:10;;;;;;;7.55;0.45;;;;;;;-3.12;72.47;98113.56;4998789;28;20078;-71
2024/01/18 01:44:38;;;;;;;2.78;0.65;;;;;;;-3.14;73.09;98115.28;4998488;28;20104;-70
2024/01/18 01:47:05;;;;;;;1.98;0.38;;;;;;;-3.15;72.59;98116.16;5000796;28;20054;-71
2024/01/18 01:49:32;;;;;;;2.63;0.35;;;;;;;-3.17;72.43;98115.31;5001337;28;20080;-71
2024/01/18 01:52:00;;;;;;;3.22;0.57;;;;;;;-3.18;72.48;98111.91;4999135;28;20133;-71
2024/01/18 01:54:29;;;;;;;4.35;0.45;;;;;;;-3.18;72.53;98103.41;4994610;28;20125;-71
2024/01/18 01:56:59;;;;;;;4.25;0.30;;;;;;;-3.23;73.16;98106.00;4999353;28;20057;-71
2024/01/18 01:59:27;;;;;;;4.50;0.30;;;;;;;-3.22;72.77;98097.47;4998574;28;20134;-72
2024/01/18 02:01:55;;;;;;;7.35;0.40;;;;;;;-3.21;72.97;98106.84;4998664;28;20489;-71
2024/01/18 02:04:23;;;;;;;3.80;0.40;;;;;;;-3.21;72.54;98099.16;4999270;28;20050;-71
2024/01/18 02:06:52;;;;;;;4.65;1.00;;;;;;;-3.20;72.88;98105.13;5000388;28;20042;-71
2024/01/18 02:09:20;;;;;;;3.33;0.82;;;;;;;-3.21;72.88;98104.28;5003719;28;20492;-71
2024/01/18 02:11:47;;;;;;;3.20;0.30;;;;;;;-3.21;73.12;98104.28;5000091;28;20489;-71
2024/01/18 02:14:14;;;;;;;5.43;0.40;;;;;;;-3.21;73.62;98101.72;4994146;28;20580;-71
2024/01/18 02:16:41;;;;;;;4.30;0.30;;;;;;;-3.21;73.08;98093.22;5003139;28;20863;-71
2024/01/18 02:19:09;;;;;;;4.95;0.70;;;;;;;-3.21;72.72;98085.53;5003131;28;20504;-71
2024/01/18 02:21:37;;;;;;;3.85;0.20;;;;;;;-3.20;73.24;98087.22;5001924;28;20124;-72
2024/01/18 02:24:12;;;;;;;6.03;0.40;;;;;;;-3.22;73.13;98077.03;5000614;28;20130;-71
2024/01/18 02:26:40;;;;;;;1.60;0.30;;;;;;;-3.20;73.21;98085.50;5001055;28;20042;-71
2024/01/18 02:29:07;;;;;;;3.83;0.30;;;;;;;-3.19;73.53;98081.22;4999409;28;20157;-71
2024/01/18 02:31:34;;;;;;;2.35;0.30;;;;;;;-3.18;73.17;98083.78;5001420;28;20048;-71
2024/01/18 02:34:01;;;;;;;0.90;0.30;;;;;;;-3.18;72.79;98083.78;4998456;28;20100;-72
2024/01/18 02:36:28;;;;;;;2.88;0.63;;;;;;;-3.17;73.16;98077.78;4998357;28;21890;-71
2024/01/18 02:38:55;;;;;;;4.38;0.45;;;;;;;-3.17;73.19;98082.91;4997577;28;20572;-75
2024/01/18 02:41:23;;;;;;;5.75;0.38;;;;;;;-3.16;73.25;98076.94;4999991;28;20046;-75
2024/01/18 02:43:51;;;;;;;2.28;0.40;;;;;;;-3.15;73.77;98073.53;4995089;28;20080;-76
2024/01/18 02:46:18;;;;;;;0.90;0.30;;;;;;;-3.15;73.42;98073.53;5001974;28;20070;-75
2024/01/18 02:48:46;;;;;;;3.83;0.20;;;;;;;-3.16;73.03;98074.41;5002264;28;20081;-73
2024/01/18 02:51:13;;;;;;;3.28;0.25;;;;;;;-3.15;73.31;98072.69;5000002;28;20163;-74
2024/01/18 02:53:40;;;;;;;3.05;0.40;;;;;;;-3.17;72.91;98069.28;5000390;28;20125;-74
2024/01/18 02:56:07;;;;;;;5.20;0.30;;;;;;;-3.15;72.94;98065.84;5000165;28;20089;-74
2024/01/18 02:58:34;;;;;;;2.17;0.45;;;;;;;-3.16;73.23;98064.16;5000368;28;20086;-74
2024/01/18 03:01:02;;;;;;;2.03;0.30;;;;;;;-3.15;73.20;98063.28;4999119;28;20130;-74
2024/01/18 03:03:29;;;;;;;0.95;0.20;;;;;;;-3.14;73.09;98066.69;5001623;28;20089;-74
2024/01/18 03:05:56;;;;;;;1.55;0.30;;;;;;;-3.15;73.23;98068.41;5000337;28;20125;-74
2024/01/18 03:08:23;;;;;;;1.15;0.22;;;;;;;-3.15;73.32;98065.84;4995847;28;20501;-74
2024/01/18 03:10:50;;;;;;;4.70;0.30;;;;;;;-3.15;73.30;98058.19;4999819;28;20132;-73
2024/01/18 03:13:17;;;;;;;1.50;0.28;;;;;;;-3.15;73.80;98055.63;4996900;28;20463;-75
2024/01/18 03:15:44;;;;;;;1.45;0.20;;;;;;;-3.14;73.46;98059.84;5000762;28;20105;-73
2024/01/18 03:18:12;;;;;;;2.63;0.30;;;;;;;-3.12;73.17;98062.41;4998531;28;20125;-74
2024/01/18 03:20:39;;;;;;;4.43;0.30;;;;;;;-3.13;73.58;98055.63;5000585;28;20066;-74
2024/01/18 03:23:06;;;;;;;1.20;0.20;;;;;;;-3.13;73.51;98061.56;4999128;28;20479;-74
2024/01/18 03:25:33;;;;;;;5.32;0.40;;;;;;;-3.12;73.42;98055.59;4997196;28;20555;-74
2024/01/18 03:28:00;;;;;;;3.05;0.20;;;;;;;-3.11;73.33;98058.97;4998545;28;20100;-73
2024/01/18 03:30:27;;;;;;;1.60;0.50;;;;;;;-3.09;74.08;98059.81;4998476;28;20815;-74
2024/01/18 03:32:53;;;;;;;4.32;0.20;;;;;;;-3.10;73.04;98060.69;4987869;28;20137;-73
2024/01/18 03:35:22;;;;;;;0.68;0.20;;;;;;;-3.11;73.41;98064.94;4997003;28;20129;-74
2024/01/18 03:37:49;;;;;;;3.35;0.50;;;;;;;-3.12;73.26;98055.59;4999381;28;20070;-74
2024/01/18 03:40:16;;;;;;;0.68;0.10;;;;;;;-3.14;72.76;98054.75;4999027;28;20137;-73
2024/01/18 03:42:43;;;;;;;0.60;0.28;;;;;;;-3.11;72.92;98070.06;4998633;28;20080;-73
2024/01/18 03:45:10;;;;;;;0.22;0.10;;;;;;;-3.13;73.24;98064.13;5001677;28;20500;-74
2024/01/18 03:47:37;;;;;;;0.15;0.10;;;;;;;-3.11;73.05;98064.09;4999370;28;20137;-74
2024/01/18 03:50:05;;;;;;;0.45;0.10;;;;;;;-3.12;72.91;98058.13;5004522;28;20173;-77
2024/01/18 03:52:33;;;;;;;1.85;0.10;;;;;;;-3.11;73.00;98061.53;5000162;28;20065;-77
2024/01/18 03:55:00;;;;;;;0.08;0.03;;;;;;;-3.10;72.96;98066.66;5003802;28;20134;-76
2024/01/18 03:57:27;;;;;;;0.00;0.00;;;;;;;-3.09;72.78;98070.88;4999011;28;20128;-77
2024/01/18 03:59:55;;;;;;;1.55;0.10;;;;;;;-3.09;72.54;98073.44;5000911;28;20085;-82
2024/01/18 04:02:22;;;;;;;1.52;0.20;;;;;;;-3.09;73.11;98078.56;5002854;28;20049;-82
2024/01/18 04:04:49;;;;;;;1.15;0.10;;;;;;;-3.10;72.80;98083.72;5007150;28;20062;-81
2024/01/18 04:07:17;;;;;;;2.17;0.10;;;;;;;-3.10;72.14;98083.72;5003918;28;20137;-82
2024/01/18 04:09:46;;;;;;;0.65;0.15;;;;;;;-3.14;72.69;98082.88;5001734;28;20042;-82
2024/01/18 04:12:14;;;;;;;0.80;0.57;;;;;;;-3.10;72.19;98081.16;5008326;28;20046;-82
2024/01/18 04:14:43;;;;;;;0.30;0.10;;;;;;;-3.10;72.13;98074.31;5003848;28;20089;-81
2024/01/18 04:17:12;;;;;;;1.95;0.10;;;;;;;-3.13;72.57;98073.53;5002012;28;20057;-82
2024/01/18 04:19:39;;;;;;;0.40;0.10;;;;;;;-3.10;72.07;98082.00;5004214;28;20481;-82
2024/01/18 04:22:06;;;;;;;0.88;0.10;;;;;;;-3.09;71.81;98083.69;5009344;28;20069;-82
2024/01/18 04:24:33;;;;;;;0.40;0.00;;;;;;;-3.09;71.94;98083.69;5011332;28;20560;-82
2024/01/18 04:27:01;;;;;;;0.95;0.10;;;;;;;-3.09;71.77;98083.69;5008903;28;21516;-81
2024/01/18 04:29:29;;;;;;;0.30;0.30;;;;;;;-3.08;71.92;98085.38;5003784;28;20096;-81
2024/01/18 04:31:55;;;;;;;0.47;0.10;;;;;;;-3.08;71.50;98080.28;5007225;28;20129;-82
2024/01/18 04:34:22;;;;;;;0.20;0.10;;;;;;;-3.07;71.87;98088.78;5004586;28;20702;-81
2024/01/18 04:36:49;;;;;;;0.73;0.10;;;;;;;-3.09;71.91;98083.69;5009510;28;20088;-81
2024/01/18 04:39:16;;;;;;;0.38;0.10;;;;;;;-3.17;71.93;98075.25;5006193;28;20106;-81
2024/01/18 04:41:44;;;;;;;0.52;0.10;;;;;;;-3.08;71.65;98089.63;5002517;28;20456;-81
2024/01/18 04:44:13;;;;;;;0.20;0.10;;;;;;;-3.08;71.60;98094.75;5009739;28;20496;-82
2024/01/18 04:46:40;;;;;;;0.10;0.10;;;;;;;-3.09;72.05;98093.06;5013042;28;20133;-81
2024/01/18 04:49:07;;;;;;;1.65;0.10;;;;;;;-3.11;71.40;98085.41;5004364;28;20085;-82
2024/01/18 04:51:34;;;;;;;0.15;0.10;;;;;;;-3.11;71.31;98089.66;5008426;28;20081;-82
2024/01/18 04:54:01;;;;;;;0.20;0.10;;;;;;;-3.11;71.74;98087.97;5012164;28;20077;-82
2024/01/18 04:56:28;;;;;;;0.20;0.10;;;;;;;-3.12;71.34;98088.00;5011654;28;20081;-82
2024/01/18 04:58:56;;;;;;;0.25;0.00;;;;;;;-3.12;72.10;98086.28;5007307;28;20911;-73
2024/01/18 05:01:24;;;;;;;0.00;0.00;;;;;;;-3.13;72.06;98087.16;5000605;28;20046;-73
2024/01/18 05:03:51;;;;;;;0.03;0.03;;;;;;;-3.12;72.08;98088.84;4999291;28;20124;-73
2024/01/18 05:06:18;;;;;;;0.35;0.15;;;;;;;-3.16;71.91;98082.06;4999008;28;20052;-73
2024/01/18 05:08:47;;;;;;;0.52;0.30;;;;;;;-3.15;71.47;98088.88;5001547;28;20046;-76
2024/01/18 05:11:14;;;;;;;0.38;0.10;;;;;;;-3.15;71.66;98088.88;5002747;28;20056;-76
2024/01/18 05:13:41;;;;;;;0.25;0.10;;;;;;;-3.16;71.39;98092.28;5010021;28;20120;-76
2024/01/18 05:16:08;;;;;;;0.20;0.10;;;;;;;-3.16;71.34;98096.53;5003209;28;20077;-76
2024/01/18 05:18:36;;;;;;;1.13;0.10;;;;;;;-3.17;71.91;98088.03;5005016;28;20073;-76
2024/01/18 05:21:03;;;;;;;0.25;0.10;;;;;;;-3.17;71.61;98085.47;5004738;28;20097;-76
2024/01/18 05:23:30;;;;;;;0.10;0.10;;;;;;;-3.18;71.63;98088.91;5007322;28;20073;-76
2024/01/18 05:25:57;;;;;;;1.10;0.17;;;;;;;-3.19;71.59;98087.22;5006334;28;20092;-77
2024/01/18 05:28:24;;;;;;;0.10;0.10;;;;;;;-3.20;71.32;98085.50;5004871;28;20405;-76
2024/01/18 05:30:52;;;;;;;0.20;0.10;;;;;;;-3.21;71.99;98083.81;5004402;28;20042;-77
2024/01/18 05:33:19;;;;;;;0.77;0.10;;;;;;;-3.26;71.78;98085.56;5003445;28;20155;-76
2024/01/18 05:35:47;;;;;;;0.10;0.10;;;;;;;-3.22;71.31;98087.25;5006754;28;20416;-76
2024/01/18 05:38:14;;;;;;;1.50;0.10;;;;;;;-3.24;71.62;98094.09;5002249;28;20123;-76
2024/01/18 05:40:41;;;;;;;1.02;0.20;;;;;;;-3.24;71.19;98099.19;5002228;28;20082;-76
2024/01/18 05:43:08;;;;;;;0.40;0.10;;;;;;;-3.25;71.79;98097.47;5008009;28;20125;-76
2024/01/18 05:45:35;;;;;;;0.70;0.40;;;;;;;-3.26;71.33;98098.34;5005048;28;20073;-76
2024/01/18 05:48:02;;;;;;;0.80;0.20;;;;;;;-3.28;70.95;98097.50;5008268;28;20416;-76
2024/01/18 05:50:29;;;;;;;0.77;0.10;;;;;;;-3.30;71.19;98099.25;5004238;28;20523;-75
2024/01/18 05:52:57;;;;;;;0.20;0.10;;;;;;;-3.31;71.18;98097.53;5005203;28;20078;-76
2024/01/18 05:55:24;;;;;;;0.98;0.10;;;;;;;-3.33;71.15;98097.59;5000164;28;20070;-76
2024/01/18 05:57:51;;;;;;;0.28;0.10;;;;;;;-3.34;70.70;98100.97;5002868;28;20077;-76
2024/01/18 06:00:18;;;;;;;0.95;0.20;;;;;;;-3.35;70.76;98106.97;5003415;28;20069;-76
2024/01/18 06:02:45;;;;;;;0.30;0.10;;;;;;;-3.35;71.21;98106.97;5007100;28;20076;-77
2024/01/18 06:05:12;;;;;;;0.30;0.20;;;;;;;-3.37;71.06;98108.69;5001015;28;20530;-75
2024/01/18 06:07:39;;;;;;;1.08;0.47;;;;;;;-3.37;71.12;98107.84;4997472;28;20041;-75
2024/01/18 06:10:08;;;;;;;0.20;0.20;;;;;;;-3.39;71.13;98107.88;5005024;28;20133;-80
2024/01/18 06:12:35;;;;;;;0.25;0.20;;;;;;;-3.40;70.85;98110.44;5010164;28;20427;-79
2024/01/18 06:15:02;;;;;;;3.72;3.45;;;;;;;-3.41;70.84;98109.59;5011681;28;20824;-80
2024/01/18 06:17:30;;;;;;;0.40;0.40;;;;;;;-3.42;71.09;98113.00;5006427;28;20141;-80
2024/01/18 06:19:57;;;;;;;0.43;0.20;;;;;;;-3.50;71.02;98099.44;5000856;28;20054;-72
2024/01/18 06:22:24;;;;;;;0.63;0.28;;;;;;;-3.44;70.61;98119.00;4996658;28;20670;-73
2024/01/18 06:24:51;;;;;;;4.13;3.75;;;;;;;-3.45;70.84;98122.41;4999420;28;20143;-74
2024/01/18 06:27:19;;;;;;;1.33;0.80;;;;;;;-3.49;70.84;98119.03;4997603;28;20132;-74
2024/01/18 06:29:47;;;;;;;1.60;0.30;;;;;;;-3.49;70.95;98134.38;5000274;28;20586;-73
2024/01/18 06:32:14;;;;;;;1.80;0.20;;;;;;;-3.51;70.95;98106.25;4998162;28;20096;-73
2024/01/18 06:34:41;;;;;;;1.23;0.50;;;;;;;-3.51;70.44;98130.97;5000850;28;20049;-73
2024/01/18 06:37:08;;;;;;;2.15;0.75;;;;;;;-3.54;71.02;98125.88;4948620;28;20176;-73
2024/01/18 06:39:35;;;;;;;0.20;0.20;;;;;;;-3.56;71.12;98112.25;4998656;28;20468;-72
2024/01/18 06:42:03;;;;;;;0.45;0.25;;;;;;;-3.59;70.80;98107.19;4995930;28;20133;-73
2024/01/18 06:44:31;;;;;;;0.93;0.77;;;;;;;-3.63;70.57;98113.19;4997260;28;20046;-73
2024/01/18 06:46:59;;;;;;;2.05;0.45;;;;;;;-3.63;70.44;98113.19;4997273;28;20046;-73
2024/01/18 06:49:27;;;;;;;0.65;0.20;;;;;;;-3.66;70.10;98115.78;4995889;28;20074;-72
2024/01/18 06:51:54;;;;;;;0.60;0.20;;;;;;;-3.68;70.74;98128.53;4995814;28;20081;-73
2024/01/18 06:54:22;;;;;;;0.28;0.20;;;;;;;-3.72;70.33;98111.56;4999803;28;20196;-74
2024/01/18 06:56:49;;;;;;;0.55;0.20;;;;;;;-3.71;70.71;98118.34;4994703;28;20050;-74
2024/01/18 06:59:16;;;;;;;0.52;0.30;;;;;;;-3.74;70.37;98113.28;4998680;28;20074;-74
2024/01/18 07:01:44;;;;;;;1.80;0.70;;;;;;;-3.72;70.36;98121.78;4997143;28;20629;-74
2024/01/18 07:04:11;;;;;;;3.70;2.00;;;;;;;-3.74;70.21;98118.38;4996564;28;20145;-74
2024/01/18 07:06:39;;;;;;;0.45;0.45;;;;;;;-3.76;69.79;98118.41;4998633;28;20553;-74
2024/01/18 07:09:06;;;;;;;1.27;0.30;;;;;;;-3.78;70.28;98121.84;4997326;28;20081;-75
2024/01/18 07:11:34;;;;;;;0.68;0.30;;;;;;;-3.81;70.06;98112.47;4994662;28;20048;-75
2024/01/18 07:14:01;;;;;;;0.40;0.20;;;;;;;-3.83;70.16;98113.34;5001748;28;20046;-74
2024/01/18 07:16:28;;;;;;;2.50;0.20;;;;;;;-3.86;70.06;98119.31;5000958;28;20100;-74
2024/01/18 07:18:56;;;;;;;0.82;0.20;;;;;;;-3.88;70.29;98115.94;4997283;28;20125;-72
2024/01/18 07:21:23;;;;;;;0.77;0.13;;;;;;;-3.86;70.04;98121.03;4992141;28;20073;-73
2024/01/18 07:23:50;;;;;;;0.55;0.13;;;;;;;-3.87;70.32;98129.56;4994489;28;20057;-73
2024/01/18 07:26:19;;;;;;;0.30;0.20;;;;;;;-3.88;69.96;98135.53;4990025;28;20133;-72
2024/01/18 07:28:45;;;;;;;0.70;0.20;;;;;;;-3.90;70.49;98127.88;4993024;28;20078;-76
2024/01/18 07:31:14;;;;;;;1.77;0.20;;;;;;;-3.90;70.07;98127.00;4994984;28;20121;-74
2024/01/18 07:33:41;;;;;;;0.35;0.20;;;;;;;-3.94;70.49;98137.25;4996055;28;20096;-75
2024/01/18 07:36:09;;;;;;;0.20;0.20;;;;;;;-3.95;70.39;98134.72;5000090;28;20074;-74
2024/01/18 07:38:36;;;;;;;0.10;0.10;;;;;;;-3.97;70.43;98136.44;4999262;28;20132;-74
2024/01/18 07:41:03;;;;;;;0.50;0.20;;;;;;;-3.99;69.85;98144.13;4997379;28;20081;-74
2024/01/18 07:43:30;;;;;;;1.45;0.30;;;;;;;-4.01;70.10;98140.72;4999514;28;20504;-74
2024/01/18 07:45:57;;;;;;;1.33;0.30;;;;;;;-4.03;69.93;98144.13;4997894;28;20085;-75
2024/01/18 07:48:25;;;;;;;0.63;0.17;;;;;;;-4.09;70.10;98147.56;4998505;28;20120;-73
2024/01/18 07:50:52;;;;;;;1.90;0.20;;;;;;;-4.11;69.73;98156.09;4998399;28;20042;-79
2024/01/18 07:53:20;;;;;;;0.28;0.20;;;;;;;-4.13;70.05;98155.25;5005287;28;20516;-76
2024/01/18 07:55:47;;;;;;;0.77;0.20;;;;;;;-4.14;69.57;98156.97;4997668;28;20125;-73
2024/01/18 07:58:14;;;;;;;0.43;0.20;;;;;;;-4.17;69.76;98156.97;4998959;28;20116;-74
2024/01/18 08:00:43;;;;;;;0.57;0.35;;;;;;;-4.19;69.95;98166.34;4997388;28;20069;-74
2024/01/18 08:03:09;;;;;;;1.20;0.30;;;;;;;-4.22;69.89;98163.81;5001274;28;20057;-77
2024/01/18 08:05:36;;;;;;;0.50;0.20;;;;;;;-4.22;69.79;98176.56;5004750;28;20129;-74
2024/01/18 08:08:04;;;;;;;0.20;0.10;;;;;;;-4.25;69.52;98174.03;5002439;28;20572;-75
2024/01/18 08:10:32;;;;;;;0.47;0.20;;;;;;;-4.31;69.53;98167.25;4996725;28;20042;-78
2024/01/18 08:13:00;;;;;;;0.30;0.10;;;;;;;-4.29;69.32;98180.03;5007530;28;20571;-79
2024/01/18 08:15:27;;;;;;;0.20;0.10;;;;;;;-4.31;69.67;98184.28;5007508;28;20046;-76
2024/01/18 08:17:54;;;;;;;0.55;0.20;;;;;;;-4.33;69.65;98179.22;5002655;28;20066;-78
2024/01/18 08:20:21;;;;;;;0.30;0.20;;;;;;;-4.38;69.41;98173.28;5009832;28;20092;-77
2024/01/18 08:22:49;;;;;;;0.20;0.10;;;;;;;-4.36;69.35;98184.28;5003072;28;20125;-74
2024/01/18 08:25:16;;;;;;;0.20;0.10;;;;;;;-4.38;69.58;98174.97;5005661;28;20055;-76
2024/01/18 08:27:45;;;;;;;0.40;0.10;;;;;;;-4.41;69.48;98181.78;5003930;28;20479;-76
2024/01/18 08:30:12;;;;;;;0.20;0.10;;;;;;;-4.44;69.45;98170.75;5001851;28;20089;-74
2024/01/18 08:32:39;;;;;;;0.20;0.10;;;;;;;-4.45;69.19;98174.13;5001293;28;20097;-74
2024/01/18 08:35:07;;;;;;;0.13;0.10;;;;;;;-4.48;69.37;98175.00;5001304;28;20053;-74
2024/01/18 08:37:35;;;;;;;0.05;0.00;;;;;;;-4.51;69.41;98176.72;4997770;28;20060;-72
2024/01/18 08:40:02;;;;;;;1.10;0.10;;;;;;;-4.53;69.35;98176.75;5004257;28;20050;-77
2024/01/18 08:42:29;;;;;;;0.20;0.10;;;;;;;-4.53;69.06;98171.63;5006179;28;20552;-79
2024/01/18 08:44:57;;;;;;;0.73;0.40;;;;;;;-4.55;69.51;98180.16;5011481;28;20084;-76
2024/01/18 08:47:26;;;;;;;0.20;0.10;;;;;;;-4.56;69.55;98181.81;5003899;28;20724;-75
2024/01/18 08:49:53;;;;;;;0.10;0.10;;;;;;;-4.58;68.88;98183.56;5006398;28;20042;-76
2024/01/18 08:52:21;;;;;;;0.30;0.20;;;;;;;-4.59;69.07;98188.66;5007033;28;20049;-75
2024/01/18 08:54:48;;;;;;;0.32;0.10;;;;;;;-4.61;69.47;98188.69;5000967;28;20054;-75
2024/01/18 08:57:17;;;;;;;0.20;0.17;;;;;;;-4.63;69.04;98195.47;5001101;28;20157;-76
2024/01/18 08:59:44;;;;;;;1.13;0.10;;;;;;;-4.64;68.99;98198.88;5008138;28;20057;-75
2024/01/18 09:02:13;;;;;;;0.20;0.10;;;;;;;-4.66;69.15;98195.50;5003411;28;20054;-74
2024/01/18 09:04:40;;;;;;;0.70;0.20;;;;;;;-4.68;69.39;98208.22;5005467;28;20468;-75
2024/01/18 09:07:07;;;;;;;0.15;0.10;;;;;;;-4.70;69.16;98204.84;5003578;28;20138;-75
2024/01/18 09:09:33;;;;;;;0.20;0.20;;;;;;;-4.72;69.28;98196.34;5000811;28;20070;-74
2024/01/18 09:12:00;;;;;;;0.10;0.10;;;;;;;-4.75;69.27;98187.88;5005038;28;20134;-75
2024/01/18 09:14:27;;;;;;;0.55;0.25;;;;;;;-4.76;68.97;98192.09;5006534;28;20092;-77
2024/01/18 09:16:54;;;;;;;0.40;0.10;;;;;;;-4.80;69.15;98192.97;5001446;28;20556;-74
2024/01/18 09:19:23;;;;;;;0.20;0.20;;;;;;;-4.83;68.85;98187.03;5001596;28;20054;-74
2024/01/18 09:21:49;;;;;;;0.50;0.20;;;;;;;-4.86;69.17;98191.28;5008465;28;20549;-76
2024/01/18 09:24:16;;;;;;;0.10;0.10;;;;;;;-4.88;68.71;98187.03;4998225;28;20077;-76
2024/01/18 09:26:43;;;;;;;0.22;0.10;;;;;;;-4.93;68.95;98181.97;5001540;28;20084;-76
2024/01/18 09:29:10;;;;;;;0.30;0.15;;;;;;;-4.92;69.00;98190.47;5002230;28;20089;-74
2024/01/18 09:31:37;;;;;;;0.30;0.10;;;;;;;-4.96;69.36;98191.28;5002155;28;20089;-74
2024/01/18 09:34:03;;;;;;;0.55;0.25;;;;;;;-4.98;69.03;98200.69;5002601;28;20054;-76
2024/01/18 09:36:32;;;;;;;0.40;0.10;;;;;;;-4.97;69.27;98204.91;5001924;28;20050;-73
2024/01/18 09:38:59;;;;;;;0.30;0.10;;;;;;;-5.01;69.00;98203.19;4999982;28;20159;-70
2024/01/18 09:41:29;;;;;;;0.32;0.10;;;;;;;-5.02;68.95;98207.47;4997589;28;20089;-71
2024/01/18 09:44:03;;;;;;;1.30;0.30;;;;;;;-5.04;69.24;98214.28;4998987;28;20501;-72
2024/01/18 09:46:30;;;;;;;0.30;0.13;;;;;;;-5.08;68.72;98208.31;4999224;28;20096;-73
2024/01/18 09:48:58;;;;;;;2.28;0.10;;;;;;;-5.10;68.87;98204.94;5000221;28;20070;-74
2024/01/18 09:51:26;;;;;;;0.40;0.20;;;;;;;-5.11;68.77;98202.38;4999483;28;20126;-75
2024/01/18 09:53:54;;;;;;;0.20;0.10;;;;;;;-5.13;68.81;98204.06;5001292;28;20108;-76
2024/01/18 09:56:24;;;;;;;1.33;0.20;;;;;;;-5.16;68.33;98196.44;4996623;28;20053;-77
2024/01/18 09:58:52;;;;;;;0.30;0.20;;;;;;;-5.19;68.57;98206.63;4998373;28;20560;-73
2024/01/18 10:01:20;;;;;;;0.45;0.20;;;;;;;-5.21;68.60;98214.28;5000375;28;20065;-76
2024/01/18 10:03:48;;;;;;;1.10;0.20;;;;;;;-5.25;68.40;98206.63;5004569;28;20054;-74
2024/01/18 10:06:15;;;;;;;0.30;0.10;;;;;;;-5.28;68.23;98199.84;5001692;28;20046;-75
2024/01/18 10:08:42;;;;;;;0.32;0.20;;;;;;;-5.30;68.11;98204.94;4994901;28;20129;-76
2024/01/18 10:11:11;;;;;;;1.42;0.20;;;;;;;-5.33;68.42;98206.63;4999436;28;20492;-75
2024/01/18 10:13:52;;;;;;;0.38;0.20;;;;;;;-5.38;67.92;98219.41;4999189;28;20460;-75
2024/01/18 10:16:29;;;;;;;0.17;0.10;;;;;;;-5.42;67.64;98217.69;5000735;28;20128;-74
2024/01/18 10:18:57;;;;;;;3.28;0.20;;;;;;;-5.49;68.07;98210.06;4996891;28;20505;-75
2024/01/18 10:21:24;;;;;;;0.98;0.20;;;;;;;-5.48;67.79;98216.84;4998998;28;20073;-74
2024/01/18 10:23:53;;;;;;;0.85;0.20;;;;;;;-5.51;67.42;98220.22;5003493;28;20081;-77
2024/01/18 10:26:21;;;;;;;1.10;0.20;;;;;;;-5.53;67.44;98224.47;5000040;28;20042;-74
2024/01/18 10:28:49;;;;;;;0.63;0.20;;;;;;;-5.55;67.46;98226.19;4998157;28;20061;-75
2024/01/18 10:31:16;;;;;;;0.45;0.20;;;;;;;-5.57;67.52;98228.72;5000691;28;20077;-74
2024/01/18 10:33:43;;;;;;;0.90;0.30;;;;;;;-5.58;67.58;98229.56;4998463;28;20094;-74
2024/01/18 10:36:10;;;;;;;0.75;0.35;;;;;;;-5.59;67.57;98234.66;5003487;28;20460;-74
2024/01/18 10:38:39;;;;;;;1.67;0.90;;;;;;;-5.59;67.74;98237.19;5001599;28;20125;-74
2024/01/18 10:41:06;;;;;;;1.95;0.60;;;;;;;-5.60;68.05;98233.81;5002077;28;20132;-74
2024/01/18 10:43:36;;;;;;;0.90;0.30;;;;;;;-5.60;67.67;98240.59;5001707;28;20100;-75
2024/01/18 10:46:04;;;;;;;1.60;0.20;;;;;;;-5.60;67.30;98238.06;4998411;28;20149;-74
2024/01/18 10:48:32;;;;;;;0.55;0.30;;;;;;;-5.60;67.71;98246.53;5004362;28;20136;-73
2024/01/18 10:51:00;;;;;;;0.85;0.30;;;;;;;-5.61;67.48;98246.53;5001400;28;20132;-75
2024/01/18 10:53:29;;;;;;;0.25;0.20;;;;;;;-5.64;67.54;98237.22;5003174;28;20512;-74
2024/01/18 10:55:57;;;;;;;0.20;0.10;;;;;;;-5.64;67.50;98242.31;4997281;28;20129;-75
2024/01/18 10:58:24;;;;;;;0.65;0.20;;;;;;;-5.67;67.49;98237.19;4999429;28;20054;-75
2024/01/18 11:00:54;;;;;;;0.50;0.30;;;;;;;-5.64;67.34;98236.34;4998617;28;20089;-74
2024/01/18 11:03:21;;;;;;;1.13;0.13;;;;;;;-5.66;67.74;98232.97;5001182;28;20050;-73
2024/01/18 11:05:50;;;;;;;0.90;0.15;;;;;;;-5.66;67.40;98233.81;4998538;28;20971;-73
2024/01/18 11:08:18;;;;;;;1.30;0.20;;;;;;;-5.64;67.30;98236.34;4995507;28;20054;-70
2024/01/18 11:10:47;;;;;;;0.55;0.30;;;;;;;-5.64;67.41;98238.88;4998072;28;20057;-73
2024/01/18 11:13:15;;;;;;;0.30;0.20;;;;;;;-5.64;67.39;98241.44;4997247;28;20044;-73
2024/01/18 11:15:44;;;;;;;0.80;0.30;;;;;;;-5.65;67.44;98232.09;5000461;28;20069;-73
2024/01/18 11:18:14;;;;;;;0.57;0.20;;;;;;;-5.64;67.05;98236.34;4998428;28;20099;-73
2024/01/18 11:21:06;;;;;;;1.00;0.20;;;;;;;-5.66;67.53;98227.88;4998108;28;20074;-73
2024/01/18 11:23:38;;;;;;;0.73;0.15;;;;;;;-5.67;67.58;98232.09;4996064;28;20062;-73
2024/01/18 11:26:07;;;;;;;0.63;0.20;;;;;;;-5.68;67.36;98239.75;4993231;28;20088;-73
2024/01/18 11:28:35;;;;;;;0.30;0.17;;;;;;;-5.69;67.54;98238.91;4999215;28;20583;-73
2024/01/18 11:31:03;;;;;;;0.63;0.20;;;;;;;-5.69;67.53;98243.16;4999238;28;20078;-73
2024/01/18 11:33:32;;;;;;;0.35;0.20;;;;;;;-5.70;67.06;98241.44;4993070;28;20050;-73
2024/01/18 11:36:00;;;;;;;0.20;0.10;;;;;;;-5.70;67.17;98243.97;4997538;28;20077;-73